sensor_id;sensor_type;location;lat;lon;timestamp;temperature;humidity
13346;DHT22;6742;48.036;15.780;2022-09-29T00:02:09;12.00;99.90
13346;DHT22;6742;48.036;15.780;2022-09-29T00:04:37;11.90;99.90
13346;DHT22;6742;48.036;15.780;2022-09-29T00:07:04;11.80;99.90
13346;DHT22;6742;48.036;15.780;2022-09-29T00:09:31;11.90;99.90
13346;DHT22;6742;48.036;15.780;2022-09-29T00:11:58;11.90;99.90
13346;DHT22;6742;48.036;15.780;2022-09-29T00:14:25;11.90;99.90
13346;DHT22;6742;48.036;15.780;2022-09-29T00:16:52;11.90;99.90
13346;DHT22;6742;48.036;15.780;2022-09-29T00:19:19;11.90;99.90
13346;DHT22;6742;48.036;15.780;2022-09-29T00:21:50;12.00;99.90
13346;DHT22;6742;48.036;15.780;2022-09-29T00:24:17;11.90;99.90
13346;DHT22;6742;48.036;15.780;2022-09-29T00:26:44;11.90;99.90
13346;DHT22;6742;48.036;15.780;2022-09-29T00:29:12;11.90;99.90
13346;DHT22;6742;48.036;15.780;2022-09-29T00:31:39;11.80;99.90
13346;DHT22;6742;48.036;15.780;2022-09-29T00:34:06;11.80;99.90
13346;DHT22;6742;48.036;15.780;2022-09-29T00:36:32;11.80;99.90
13346;DHT22;6742;48.036;15.780;2022-09-29T00:39:01;11.80;99.90
13346;DHT22;6742;48.036;15.780;2022-09-29T00:41:29;11.80;99.90
13346;DHT22;6742;48.036;15.780;2022-09-29T00:43:59;11.80;99.90
13346;DHT22;6742;48.036;15.780;2022-09-29T00:46:39;11.80;99.90
13346;DHT22;6742;48.036;15.780;2022-09-29T00:49:15;11.70;99.90
13346;DHT22;6742;48.036;15.780;2022-09-29T00:51:46;11.70;99.90
13346;DHT22;6742;48.036;15.780;2022-09-29T00:54:15;11.50;99.90
13346;DHT22;6742;48.036;15.780;2022-09-29T00:56:45;11.40;99.90
13346;DHT22;6742;48.036;15.780;2022-09-29T00:59:15;11.40;99.90
13346;DHT22;6742;48.036;15.780;2022-09-29T01:01:42;11.30;99.90
13346;DHT22;6742;48.036;15.780;2022-09-29T01:04:12;11.30;99.90
13346;DHT22;6742;48.036;15.780;2022-09-29T01:06:44;11.30;99.90
13346;DHT22;6742;48.036;15.780;2022-09-29T01:09:15;11.40;99.90
13346;DHT22;6742;48.036;15.780;2022-09-29T01:11:42;11.30;99.90
13346;DHT22;6742;48.036;15.780;2022-09-29T01:14:10;11.30;99.90
13346;DHT22;6742;48.036;15.780;2022-09-29T01:16:37;11.30;99.90
13346;DHT22;6742;48.036;15.780;2022-09-29T01:19:10;11.30;99.90
13346;DHT22;6742;48.036;15.780;2022-09-29T01:21:43;11.30;99.90
13346;DHT22;6742;48.036;15.780;2022-09-29T01:24:55;11.30;99.90
13346;DHT22;6742;48.036;15.780;2022-09-29T01:30:18;11.30;99.90
13346;DHT22;6742;48.036;15.780;2022-09-29T01:35:47;11.40;99.90
13346;DHT22;6742;48.036;15.780;2022-09-29T01:38:27;11.30;99.90
13346;DHT22;6742;48.036;15.780;2022-09-29T01:41:04;11.30;99.90
13346;DHT22;6742;48.036;15.780;2022-09-29T01:43:35;11.40;99.90
13346;DHT22;6742;48.036;15.780;2022-09-29T01:46:07;11.40;99.90
13346;DHT22;6742;48.036;15.780;2022-09-29T01:48:42;11.40;99.90
13346;DHT22;6742;48.036;15.780;2022-09-29T01:51:14;11.40;99.90
13346;DHT22;6742;48.036;15.780;2022-09-29T01:53:47;11.40;99.90
13346;DHT22;6742;48.036;15.780;2022-09-29T01:56:19;11.40;99.90
13346;DHT22;6742;48.036;15.780;2022-09-29T01:58:52;11.40;99.90
13346;DHT22;6742;48.036;15.780;2022-09-29T02:01:22;11.40;99.90
13346;DHT22;6742;48.036;15.780;2022-09-29T02:03:55;11.40;99.90
13346;DHT22;6742;48.036;15.780;2022-09-29T02:06:26;11.50;99.90
13346;DHT22;6742;48.036;15.780;2022-09-29T02:08:57;11.40;99.90
13346;DHT22;6742;48.036;15.780;2022-09-29T02:11:29;11.40;99.90
13346;DHT22;6742;48.036;15.780;2022-09-29T02:14:00;11.50;99.90
13346;DHT22;6742;48.036;15.780;2022-09-29T02:16:31;11.50;99.90
13346;DHT22;6742;48.036;15.780;2022-09-29T02:19:02;11.40;99.90
13346;DHT22;6742;48.036;15.780;2022-09-29T02:21:30;11.40;99.90
13346;DHT22;6742;48.036;15.780;2022-09-29T02:23:59;11.30;99.90
13346;DHT22;6742;48.036;15.780;2022-09-29T02:26:29;11.40;99.90
13346;DHT22;6742;48.036;15.780;2022-09-29T02:28:59;11.30;99.90
13346;DHT22;6742;48.036;15.780;2022-09-29T02:31:27;11.30;99.90
13346;DHT22;6742;48.036;15.780;2022-09-29T02:33:54;11.30;99.90
13346;DHT22;6742;48.036;15.780;2022-09-29T02:36:32;11.30;99.90
13346;DHT22;6742;48.036;15.780;2022-09-29T02:39:03;11.30;99.90
13346;DHT22;6742;48.036;15.780;2022-09-29T02:41:44;11.30;99.90
13346;DHT22;6742;48.036;15.780;2022-09-29T02:44:29;11.30;99.90
13346;DHT22;6742;48.036;15.780;2022-09-29T02:47:15;11.30;99.90
13346;DHT22;6742;48.036;15.780;2022-09-29T02:49:59;11.30;99.90
13346;DHT22;6742;48.036;15.780;2022-09-29T02:52:39;11.30;99.90
13346;DHT22;6742;48.036;15.780;2022-09-29T02:55:14;11.30;99.90
13346;DHT22;6742;48.036;15.780;2022-09-29T02:57:47;11.20;99.90
13346;DHT22;6742;48.036;15.780;2022-09-29T03:00:17;11.20;99.90
13346;DHT22;6742;48.036;15.780;2022-09-29T03:02:45;11.20;99.90
13346;DHT22;6742;48.036;15.780;2022-09-29T03:05:14;11.20;99.90
13346;DHT22;6742;48.036;15.780;2022-09-29T03:07:43;11.20;99.90
13346;DHT22;6742;48.036;15.780;2022-09-29T03:10:11;11.20;99.90
13346;DHT22;6742;48.036;15.780;2022-09-29T03:12:38;11.20;99.90
13346;DHT22;6742;48.036;15.780;2022-09-29T03:15:06;11.20;99.90
13346;DHT22;6742;48.036;15.780;2022-09-29T03:17:37;11.20;99.90
13346;DHT22;6742;48.036;15.780;2022-09-29T03:20:05;11.20;99.90
13346;DHT22;6742;48.036;15.780;2022-09-29T03:22:32;11.10;99.90
13346;DHT22;6742;48.036;15.780;2022-09-29T03:25:02;11.10;99.90
13346;DHT22;6742;48.036;15.780;2022-09-29T03:27:30;11.10;99.90
13346;DHT22;6742;48.036;15.780;2022-09-29T03:29:57;11.10;99.90
13346;DHT22;6742;48.036;15.780;2022-09-29T03:32:25;11.10;99.90
13346;DHT22;6742;48.036;15.780;2022-09-29T03:34:51;11.10;99.90
13346;DHT22;6742;48.036;15.780;2022-09-29T03:37:18;11.10;99.90
13346;DHT22;6742;48.036;15.780;2022-09-29T03:39:45;11.10;99.90
13346;DHT22;6742;48.036;15.780;2022-09-29T03:42:13;11.10;99.90
13346;DHT22;6742;48.036;15.780;2022-09-29T03:44:41;11.10;99.90
13346;DHT22;6742;48.036;15.780;2022-09-29T03:47:08;11.10;99.90
13346;DHT22;6742;48.036;15.780;2022-09-29T03:49:35;11.10;99.90
13346;DHT22;6742;48.036;15.780;2022-09-29T03:52:02;11.20;99.90
13346;DHT22;6742;48.036;15.780;2022-09-29T03:54:29;11.20;99.90
13346;DHT22;6742;48.036;15.780;2022-09-29T03:56:55;11.10;99.90
13346;DHT22;6742;48.036;15.780;2022-09-29T03:59:24;11.10;99.90
13346;DHT22;6742;48.036;15.780;2022-09-29T04:01:51;11.10;99.90
13346;DHT22;6742;48.036;15.780;2022-09-29T04:04:18;11.10;99.90
13346;DHT22;6742;48.036;15.780;2022-09-29T04:06:44;11.10;99.90
13346;DHT22;6742;48.036;15.780;2022-09-29T04:09:11;11.10;99.90
13346;DHT22;6742;48.036;15.780;2022-09-29T04:11:38;11.10;99.90
13346;DHT22;6742;48.036;15.780;2022-09-29T04:14:05;11.10;99.90
13346;DHT22;6742;48.036;15.780;2022-09-29T04:16:33;11.10;99.90
13346;DHT22;6742;48.036;15.780;2022-09-29T04:19:00;11.10;99.90
13346;DHT22;6742;48.036;15.780;2022-09-29T04:21:27;11.10;99.90
13346;DHT22;6742;48.036;15.780;2022-09-29T04:23:54;11.10;99.90
13346;DHT22;6742;48.036;15.780;2022-09-29T04:26:21;11.10;99.90
13346;DHT22;6742;48.036;15.780;2022-09-29T04:28:48;11.00;99.90
13346;DHT22;6742;48.036;15.780;2022-09-29T04:31:15;11.00;99.90
13346;DHT22;6742;48.036;15.780;2022-09-29T04:33:43;11.00;99.90
13346;DHT22;6742;48.036;15.780;2022-09-29T04:36:10;11.10;99.90
13346;DHT22;6742;48.036;15.780;2022-09-29T04:38:37;11.10;99.90
13346;DHT22;6742;48.036;15.780;2022-09-29T04:41:04;11.10;99.90
13346;DHT22;6742;48.036;15.780;2022-09-29T04:43:34;11.10;99.90
13346;DHT22;6742;48.036;15.780;2022-09-29T04:46:03;11.10;99.90
13346;DHT22;6742;48.036;15.780;2022-09-29T04:48:30;11.10;99.90
13346;DHT22;6742;48.036;15.780;2022-09-29T04:50:58;11.00;99.90
13346;DHT22;6742;48.036;15.780;2022-09-29T04:53:25;11.00;99.90
13346;DHT22;6742;48.036;15.780;2022-09-29T04:55:52;11.00;99.90
13346;DHT22;6742;48.036;15.780;2022-09-29T04:58:19;11.00;99.90
13346;DHT22;6742;48.036;15.780;2022-09-29T05:00:46;11.00;99.90
13346;DHT22;6742;48.036;15.780;2022-09-29T05:03:13;11.00;99.90
13346;DHT22;6742;48.036;15.780;2022-09-29T05:05:40;11.00;99.90
13346;DHT22;6742;48.036;15.780;2022-09-29T05:08:08;11.00;99.90
13346;DHT22;6742;48.036;15.780;2022-09-29T05:10:35;11.00;99.90
13346;DHT22;6742;48.036;15.780;2022-09-29T05:13:02;11.00;99.90
13346;DHT22;6742;48.036;15.780;2022-09-29T05:15:29;11.00;99.90
13346;DHT22;6742;48.036;15.780;2022-09-29T05:18:00;11.00;99.90
13346;DHT22;6742;48.036;15.780;2022-09-29T05:20:27;11.00;99.90
13346;DHT22;6742;48.036;15.780;2022-09-29T05:22:55;10.90;99.90
13346;DHT22;6742;48.036;15.780;2022-09-29T05:25:24;10.90;99.90
13346;DHT22;6742;48.036;15.780;2022-09-29T05:27:51;10.90;99.90
13346;DHT22;6742;48.036;15.780;2022-09-29T05:30:18;10.80;99.90
13346;DHT22;6742;48.036;15.780;2022-09-29T05:32:45;10.80;99.90
13346;DHT22;6742;48.036;15.780;2022-09-29T05:35:12;10.80;99.90
13346;DHT22;6742;48.036;15.780;2022-09-29T05:37:39;10.80;99.90
13346;DHT22;6742;48.036;15.780;2022-09-29T05:40:07;10.80;99.90
13346;DHT22;6742;48.036;15.780;2022-09-29T05:42:36;10.80;99.90
13346;DHT22;6742;48.036;15.780;2022-09-29T05:45:03;10.90;99.90
13346;DHT22;6742;48.036;15.780;2022-09-29T05:47:30;10.90;99.90
13346;DHT22;6742;48.036;15.780;2022-09-29T05:49:57;10.90;99.90
13346;DHT22;6742;48.036;15.780;2022-09-29T05:52:24;10.90;99.90
13346;DHT22;6742;48.036;15.780;2022-09-29T05:54:51;10.90;99.90
13346;DHT22;6742;48.036;15.780;2022-09-29T05:57:18;10.90;99.90
13346;DHT22;6742;48.036;15.780;2022-09-29T05:59:47;10.90;99.90
13346;DHT22;6742;48.036;15.780;2022-09-29T06:02:13;10.80;99.90
13346;DHT22;6742;48.036;15.780;2022-09-29T06:04:41;10.80;99.90
13346;DHT22;6742;48.036;15.780;2022-09-29T06:07:08;10.80;99.90
13346;DHT22;6742;48.036;15.780;2022-09-29T06:09:35;10.80;99.90
13346;DHT22;6742;48.036;15.780;2022-09-29T06:12:02;10.80;99.90
13346;DHT22;6742;48.036;15.780;2022-09-29T06:14:29;10.80;99.90
13346;DHT22;6742;48.036;15.780;2022-09-29T06:16:57;10.80;99.90
13346;DHT22;6742;48.036;15.780;2022-09-29T06:19:24;10.80;99.90
13346;DHT22;6742;48.036;15.780;2022-09-29T06:21:51;10.80;99.90
13346;DHT22;6742;48.036;15.780;2022-09-29T06:24:21;10.80;99.90
13346;DHT22;6742;48.036;15.780;2022-09-29T06:26:48;10.90;99.90
13346;DHT22;6742;48.036;15.780;2022-09-29T06:29:15;10.90;99.90
13346;DHT22;6742;48.036;15.780;2022-09-29T06:31:42;10.90;99.90
13346;DHT22;6742;48.036;15.780;2022-09-29T06:34:13;10.90;99.90
13346;DHT22;6742;48.036;15.780;2022-09-29T06:36:42;10.90;99.90
13346;DHT22;6742;48.036;15.780;2022-09-29T06:39:27;10.90;99.90
13346;DHT22;6742;48.036;15.780;2022-09-29T06:41:55;10.90;99.90
13346;DHT22;6742;48.036;15.780;2022-09-29T06:44:23;10.90;99.90
13346;DHT22;6742;48.036;15.780;2022-09-29T06:46:55;10.90;99.90
13346;DHT22;6742;48.036;15.780;2022-09-29T06:49:24;10.90;99.90
13346;DHT22;6742;48.036;15.780;2022-09-29T06:51:51;10.90;99.90
13346;DHT22;6742;48.036;15.780;2022-09-29T06:54:20;10.90;99.90
13346;DHT22;6742;48.036;15.780;2022-09-29T06:56:50;10.90;99.90
13346;DHT22;6742;48.036;15.780;2022-09-29T06:59:18;11.00;99.90
13346;DHT22;6742;48.036;15.780;2022-09-29T07:01:45;11.00;99.90
13346;DHT22;6742;48.036;15.780;2022-09-29T07:04:14;11.00;99.90
13346;DHT22;6742;48.036;15.780;2022-09-29T07:06:43;11.00;99.90
13346;DHT22;6742;48.036;15.780;2022-09-29T07:09:11;11.00;99.90
13346;DHT22;6742;48.036;15.780;2022-09-29T07:11:41;11.00;99.90
13346;DHT22;6742;48.036;15.780;2022-09-29T07:14:09;11.00;99.90
13346;DHT22;6742;48.036;15.780;2022-09-29T07:16:36;11.00;99.90
13346;DHT22;6742;48.036;15.780;2022-09-29T07:19:03;11.00;99.90
13346;DHT22;6742;48.036;15.780;2022-09-29T07:21:30;11.10;99.90
13346;DHT22;6742;48.036;15.780;2022-09-29T07:23:59;11.10;99.90
13346;DHT22;6742;48.036;15.780;2022-09-29T07:26:26;11.10;99.90
13346;DHT22;6742;48.036;15.780;2022-09-29T07:28:53;11.10;99.90
13346;DHT22;6742;48.036;15.780;2022-09-29T07:31:20;11.20;99.90
13346;DHT22;6742;48.036;15.780;2022-09-29T07:33:49;11.20;99.90
13346;DHT22;6742;48.036;15.780;2022-09-29T07:36:19;11.20;99.90
13346;DHT22;6742;48.036;15.780;2022-09-29T07:38:47;11.20;99.90
13346;DHT22;6742;48.036;15.780;2022-09-29T07:41:16;11.20;99.90
13346;DHT22;6742;48.036;15.780;2022-09-29T07:43:43;11.20;99.90
13346;DHT22;6742;48.036;15.780;2022-09-29T07:46:10;11.20;99.90
13346;DHT22;6742;48.036;15.780;2022-09-29T07:48:38;11.20;99.90
13346;DHT22;6742;48.036;15.780;2022-09-29T07:51:06;11.20;99.90
13346;DHT22;6742;48.036;15.780;2022-09-29T07:53:34;11.20;99.90
13346;DHT22;6742;48.036;15.780;2022-09-29T07:56:02;11.20;99.90
13346;DHT22;6742;48.036;15.780;2022-09-29T07:58:31;11.20;99.90
13346;DHT22;6742;48.036;15.780;2022-09-29T08:00:59;11.30;99.90
13346;DHT22;6742;48.036;15.780;2022-09-29T08:03:28;11.30;99.90
13346;DHT22;6742;48.036;15.780;2022-09-29T08:05:55;11.30;99.90
13346;DHT22;6742;48.036;15.780;2022-09-29T08:08:23;11.40;99.90
13346;DHT22;6742;48.036;15.780;2022-09-29T08:10:50;11.40;99.90
13346;DHT22;6742;48.036;15.780;2022-09-29T08:13:18;11.40;99.90
13346;DHT22;6742;48.036;15.780;2022-09-29T08:15:46;11.50;99.90
13346;DHT22;6742;48.036;15.780;2022-09-29T08:18:13;11.50;99.90
13346;DHT22;6742;48.036;15.780;2022-09-29T08:20:40;11.60;99.90
13346;DHT22;6742;48.036;15.780;2022-09-29T08:23:07;11.60;99.90
13346;DHT22;6742;48.036;15.780;2022-09-29T08:25:34;11.70;99.90
13346;DHT22;6742;48.036;15.780;2022-09-29T08:28:03;11.70;99.90
13346;DHT22;6742;48.036;15.780;2022-09-29T08:30:30;11.80;99.90
13346;DHT22;6742;48.036;15.780;2022-09-29T08:32:58;12.00;99.90
13346;DHT22;6742;48.036;15.780;2022-09-29T08:35:26;12.20;99.90
13346;DHT22;6742;48.036;15.780;2022-09-29T08:37:53;12.20;99.90
13346;DHT22;6742;48.036;15.780;2022-09-29T08:40:22;12.30;99.90
13346;DHT22;6742;48.036;15.780;2022-09-29T08:42:58;12.30;99.90
13346;DHT22;6742;48.036;15.780;2022-09-29T08:45:29;12.40;99.90
13346;DHT22;6742;48.036;15.780;2022-09-29T08:48:03;12.40;99.90
13346;DHT22;6742;48.036;15.780;2022-09-29T08:50:35;12.50;99.90
13346;DHT22;6742;48.036;15.780;2022-09-29T08:53:06;12.60;99.90
13346;DHT22;6742;48.036;15.780;2022-09-29T08:55:41;12.80;99.90
13346;DHT22;6742;48.036;15.780;2022-09-29T08:58:11;13.00;99.90
13346;DHT22;6742;48.036;15.780;2022-09-29T09:00:42;13.20;99.90
13346;DHT22;6742;48.036;15.780;2022-09-29T09:03:31;13.60;99.90
13346;DHT22;6742;48.036;15.780;2022-09-29T09:06:12;14.10;99.90
13346;DHT22;6742;48.036;15.780;2022-09-29T09:09:09;14.20;99.90
13346;DHT22;6742;48.036;15.780;2022-09-29T09:11:55;14.20;99.90
13346;DHT22;6742;48.036;15.780;2022-09-29T09:14:39;14.30;99.90
13346;DHT22;6742;48.036;15.780;2022-09-29T09:17:12;14.30;99.90
13346;DHT22;6742;48.036;15.780;2022-09-29T09:20:00;14.20;99.90
13346;DHT22;6742;48.036;15.780;2022-09-29T09:22:37;14.10;99.90
13346;DHT22;6742;48.036;15.780;2022-09-29T09:25:18;14.20;99.90
13346;DHT22;6742;48.036;15.780;2022-09-29T09:27:55;14.30;99.90
13346;DHT22;6742;48.036;15.780;2022-09-29T09:30:28;14.40;99.90
13346;DHT22;6742;48.036;15.780;2022-09-29T09:33:01;14.70;99.90
13346;DHT22;6742;48.036;15.780;2022-09-29T09:35:41;14.80;99.90
13346;DHT22;6742;48.036;15.780;2022-09-29T09:38:12;14.90;99.90
13346;DHT22;6742;48.036;15.780;2022-09-29T09:40:44;15.10;99.90
13346;DHT22;6742;48.036;15.780;2022-09-29T09:43:19;15.30;99.90
13346;DHT22;6742;48.036;15.780;2022-09-29T09:45:53;15.50;99.90
13346;DHT22;6742;48.036;15.780;2022-09-29T09:48:28;15.50;99.90
13346;DHT22;6742;48.036;15.780;2022-09-29T09:51:01;15.60;99.90
13346;DHT22;6742;48.036;15.780;2022-09-29T09:53:37;15.60;99.90
13346;DHT22;6742;48.036;15.780;2022-09-29T09:56:14;15.50;99.90
13346;DHT22;6742;48.036;15.780;2022-09-29T09:59:05;15.50;99.90
13346;DHT22;6742;48.036;15.780;2022-09-29T10:01:35;15.50;99.90
13346;DHT22;6742;48.036;15.780;2022-09-29T10:04:02;15.50;99.90
13346;DHT22;6742;48.036;15.780;2022-09-29T10:06:31;15.50;99.90
13346;DHT22;6742;48.036;15.780;2022-09-29T10:08:59;15.20;99.90
13346;DHT22;6742;48.036;15.780;2022-09-29T10:11:27;15.10;99.90
13346;DHT22;6742;48.036;15.780;2022-09-29T10:13:57;14.90;99.90
13346;DHT22;6742;48.036;15.780;2022-09-29T10:16:30;14.90;99.90
13346;DHT22;6742;48.036;15.780;2022-09-29T10:18:58;14.80;99.90
13346;DHT22;6742;48.036;15.780;2022-09-29T10:21:36;14.90;99.90
13346;DHT22;6742;48.036;15.780;2022-09-29T10:24:05;14.80;99.90
13346;DHT22;6742;48.036;15.780;2022-09-29T10:26:37;14.80;99.90
13346;DHT22;6742;48.036;15.780;2022-09-29T10:29:22;14.80;99.90
13346;DHT22;6742;48.036;15.780;2022-09-29T10:32:02;14.70;99.90
13346;DHT22;6742;48.036;15.780;2022-09-29T10:34:32;14.60;99.90
13346;DHT22;6742;48.036;15.780;2022-09-29T10:37:02;14.60;99.90
13346;DHT22;6742;48.036;15.780;2022-09-29T10:39:30;14.50;99.90
13346;DHT22;6742;48.036;15.780;2022-09-29T10:41:57;14.50;99.90
13346;DHT22;6742;48.036;15.780;2022-09-29T10:44:30;14.70;99.90
13346;DHT22;6742;48.036;15.780;2022-09-29T10:46:58;14.70;99.90
13346;DHT22;6742;48.036;15.780;2022-09-29T10:49:26;14.80;99.90
13346;DHT22;6742;48.036;15.780;2022-09-29T10:51:58;14.80;99.90
13346;DHT22;6742;48.036;15.780;2022-09-29T10:54:29;14.90;99.90
13346;DHT22;6742;48.036;15.780;2022-09-29T10:56:59;15.10;99.90
13346;DHT22;6742;48.036;15.780;2022-09-29T10:59:26;15.30;99.90
13346;DHT22;6742;48.036;15.780;2022-09-29T11:01:56;15.60;99.90
13346;DHT22;6742;48.036;15.780;2022-09-29T11:04:28;15.80;99.90
13346;DHT22;6742;48.036;15.780;2022-09-29T11:07:04;16.10;99.90
13346;DHT22;6742;48.036;15.780;2022-09-29T11:09:39;15.90;99.90
13346;DHT22;6742;48.036;15.780;2022-09-29T11:12:25;15.70;99.90
13346;DHT22;6742;48.036;15.780;2022-09-29T11:14:53;15.40;99.90
13346;DHT22;6742;48.036;15.780;2022-09-29T11:17:23;15.20;99.90
13346;DHT22;6742;48.036;15.780;2022-09-29T11:19:51;15.00;99.90
13346;DHT22;6742;48.036;15.780;2022-09-29T11:25:48;14.90;99.90
13346;DHT22;6742;48.036;15.780;2022-09-29T11:28:46;15.00;99.90
13346;DHT22;6742;48.036;15.780;2022-09-29T11:31:38;15.10;99.90
13346;DHT22;6742;48.036;15.780;2022-09-29T11:37:20;15.10;99.90
13346;DHT22;6742;48.036;15.780;2022-09-29T11:39:57;15.00;99.90
13346;DHT22;6742;48.036;15.780;2022-09-29T11:42:56;15.10;99.90
13346;DHT22;6742;48.036;15.780;2022-09-29T11:45:37;14.90;99.90
13346;DHT22;6742;48.036;15.780;2022-09-29T11:48:29;14.80;99.90
13346;DHT22;6742;48.036;15.780;2022-09-29T11:51:03;14.80;99.90
13346;DHT22;6742;48.036;15.780;2022-09-29T11:53:44;14.90;99.90
13346;DHT22;6742;48.036;15.780;2022-09-29T11:56:29;15.00;99.90
13346;DHT22;6742;48.036;15.780;2022-09-29T11:59:13;15.20;99.90
13346;DHT22;6742;48.036;15.780;2022-09-29T12:01:55;15.30;99.90
13346;DHT22;6742;48.036;15.780;2022-09-29T12:04:37;15.40;99.90
13346;DHT22;6742;48.036;15.780;2022-09-29T12:07:20;15.60;99.90
13346;DHT22;6742;48.036;15.780;2022-09-29T12:10:04;15.80;99.90
13346;DHT22;6742;48.036;15.780;2022-09-29T12:12:42;15.90;99.90
13346;DHT22;6742;48.036;15.780;2022-09-29T12:15:33;16.10;99.90
13346;DHT22;6742;48.036;15.780;2022-09-29T12:18:10;15.80;99.90
13346;DHT22;6742;48.036;15.780;2022-09-29T12:20:42;15.80;99.90
13346;DHT22;6742;48.036;15.780;2022-09-29T12:23:13;15.70;99.90
13346;DHT22;6742;48.036;15.780;2022-09-29T12:25:48;15.80;99.90
13346;DHT22;6742;48.036;15.780;2022-09-29T12:28:22;15.70;99.90
13346;DHT22;6742;48.036;15.780;2022-09-29T12:30:56;15.60;99.90
13346;DHT22;6742;48.036;15.780;2022-09-29T12:33:28;15.50;99.90
13346;DHT22;6742;48.036;15.780;2022-09-29T12:36:08;15.50;99.90
13346;DHT22;6742;48.036;15.780;2022-09-29T12:39:01;15.50;99.90
13346;DHT22;6742;48.036;15.780;2022-09-29T12:44:25;15.40;99.90
13346;DHT22;6742;48.036;15.780;2022-09-29T12:47:01;15.50;99.90
13346;DHT22;6742;48.036;15.780;2022-09-29T12:49:34;15.50;99.90
13346;DHT22;6742;48.036;15.780;2022-09-29T12:52:11;15.50;99.90
13346;DHT22;6742;48.036;15.780;2022-09-29T12:54:46;15.40;99.90
13346;DHT22;6742;48.036;15.780;2022-09-29T12:57:14;15.30;99.90
13346;DHT22;6742;48.036;15.780;2022-09-29T12:59:42;15.20;99.90
13346;DHT22;6742;48.036;15.780;2022-09-29T13:02:20;15.30;99.90
13346;DHT22;6742;48.036;15.780;2022-09-29T13:04:59;15.20;99.90
13346;DHT22;6742;48.036;15.780;2022-09-29T13:07:54;15.20;99.90
13346;DHT22;6742;48.036;15.780;2022-09-29T13:13:12;15.20;99.90
13346;DHT22;6742;48.036;15.780;2022-09-29T13:15:53;15.20;99.90
13346;DHT22;6742;48.036;15.780;2022-09-29T13:18:46;15.20;99.90
13346;DHT22;6742;48.036;15.780;2022-09-29T13:21:22;15.30;99.90
13346;DHT22;6742;48.036;15.780;2022-09-29T13:24:01;15.20;99.90
13346;DHT22;6742;48.036;15.780;2022-09-29T13:27:01;15.20;99.90
13346;DHT22;6742;48.036;15.780;2022-09-29T13:29:42;15.20;99.90
13346;DHT22;6742;48.036;15.780;2022-09-29T13:32:10;15.40;99.90
13346;DHT22;6742;48.036;15.780;2022-09-29T13:34:44;15.40;99.90
13346;DHT22;6742;48.036;15.780;2022-09-29T13:37:15;15.30;99.90
13346;DHT22;6742;48.036;15.780;2022-09-29T13:39:44;15.40;99.90
13346;DHT22;6742;48.036;15.780;2022-09-29T13:42:42;15.50;99.90
13346;DHT22;6742;48.036;15.780;2022-09-29T13:51:40;15.40;99.90
13346;DHT22;6742;48.036;15.780;2022-09-29T13:54:21;15.40;99.90
13346;DHT22;6742;48.036;15.780;2022-09-29T13:56:50;15.30;99.90
13346;DHT22;6742;48.036;15.780;2022-09-29T13:59:21;15.20;99.90
13346;DHT22;6742;48.036;15.780;2022-09-29T14:01:49;15.20;99.90
13346;DHT22;6742;48.036;15.780;2022-09-29T14:04:41;15.10;99.90
13346;DHT22;6742;48.036;15.780;2022-09-29T14:07:12;15.00;99.90
13346;DHT22;6742;48.036;15.780;2022-09-29T14:09:42;14.90;99.90
13346;DHT22;6742;48.036;15.780;2022-09-29T14:12:18;14.90;99.90
13346;DHT22;6742;48.036;15.780;2022-09-29T14:14:51;14.80;99.90
13346;DHT22;6742;48.036;15.780;2022-09-29T14:17:25;14.70;99.90
13346;DHT22;6742;48.036;15.780;2022-09-29T14:19:59;14.60;99.90
13346;DHT22;6742;48.036;15.780;2022-09-29T14:25:49;14.40;99.90
13346;DHT22;6742;48.036;15.780;2022-09-29T14:28:37;14.30;99.90
13346;DHT22;6742;48.036;15.780;2022-09-29T14:31:18;14.30;99.90
13346;DHT22;6742;48.036;15.780;2022-09-29T14:33:47;14.30;99.90
13346;DHT22;6742;48.036;15.780;2022-09-29T14:36:17;14.30;99.90
13346;DHT22;6742;48.036;15.780;2022-09-29T14:38:46;14.50;99.90
13346;DHT22;6742;48.036;15.780;2022-09-29T14:41:25;14.50;99.90
13346;DHT22;6742;48.036;15.780;2022-09-29T14:43:57;14.40;99.90
13346;DHT22;6742;48.036;15.780;2022-09-29T14:47:07;14.30;99.90
13346;DHT22;6742;48.036;15.780;2022-09-29T14:50:13;14.20;99.90
13346;DHT22;6742;48.036;15.780;2022-09-29T14:53:28;14.20;99.90
13346;DHT22;6742;48.036;15.780;2022-09-29T14:56:06;14.30;99.90
13346;DHT22;6742;48.036;15.780;2022-09-29T14:58:50;14.40;99.90
13346;DHT22;6742;48.036;15.780;2022-09-29T15:01:25;14.40;99.90
13346;DHT22;6742;48.036;15.780;2022-09-29T15:04:03;14.50;99.90
13346;DHT22;6742;48.036;15.780;2022-09-29T15:06:31;14.50;99.90
13346;DHT22;6742;48.036;15.780;2022-09-29T15:08:59;14.30;99.90
13346;DHT22;6742;48.036;15.780;2022-09-29T15:11:31;14.20;99.90
13346;DHT22;6742;48.036;15.780;2022-09-29T15:14:20;14.20;99.90
13346;DHT22;6742;48.036;15.780;2022-09-29T15:17:05;14.20;99.90
13346;DHT22;6742;48.036;15.780;2022-09-29T15:19:51;14.20;99.90
13346;DHT22;6742;48.036;15.780;2022-09-29T15:23:00;14.10;99.90
13346;DHT22;6742;48.036;15.780;2022-09-29T15:25:31;14.10;99.90
13346;DHT22;6742;48.036;15.780;2022-09-29T15:28:01;14.00;99.90
13346;DHT22;6742;48.036;15.780;2022-09-29T15:30:30;13.80;99.90
13346;DHT22;6742;48.036;15.780;2022-09-29T15:33:13;13.60;99.90
13346;DHT22;6742;48.036;15.780;2022-09-29T15:35:42;13.50;99.90
13346;DHT22;6742;48.036;15.780;2022-09-29T15:38:26;13.40;99.90
13346;DHT22;6742;48.036;15.780;2022-09-29T15:41:01;13.30;99.90
13346;DHT22;6742;48.036;15.780;2022-09-29T15:43:30;13.30;99.90
13346;DHT22;6742;48.036;15.780;2022-09-29T15:46:15;13.20;99.90
13346;DHT22;6742;48.036;15.780;2022-09-29T15:49:04;13.20;99.90
13346;DHT22;6742;48.036;15.780;2022-09-29T15:51:32;13.20;99.90
13346;DHT22;6742;48.036;15.780;2022-09-29T15:54:01;13.30;99.90
13346;DHT22;6742;48.036;15.780;2022-09-29T15:56:29;13.30;99.90
13346;DHT22;6742;48.036;15.780;2022-09-29T15:58:56;13.40;99.90
13346;DHT22;6742;48.036;15.780;2022-09-29T16:01:25;13.30;99.90
13346;DHT22;6742;48.036;15.780;2022-09-29T16:03:55;13.40;99.90
13346;DHT22;6742;48.036;15.780;2022-09-29T16:06:28;13.40;99.90
13346;DHT22;6742;48.036;15.780;2022-09-29T16:08:57;13.50;99.90
13346;DHT22;6742;48.036;15.780;2022-09-29T16:11:30;13.60;99.90
13346;DHT22;6742;48.036;15.780;2022-09-29T16:14:01;13.70;99.90
13346;DHT22;6742;48.036;15.780;2022-09-29T16:16:32;13.80;99.90
13346;DHT22;6742;48.036;15.780;2022-09-29T16:19:05;13.80;99.90
13346;DHT22;6742;48.036;15.780;2022-09-29T16:21:35;13.80;99.90
13346;DHT22;6742;48.036;15.780;2022-09-29T16:24:10;13.70;99.90
13346;DHT22;6742;48.036;15.780;2022-09-29T16:26:40;13.60;99.90
13346;DHT22;6742;48.036;15.780;2022-09-29T16:29:28;13.50;99.90
13346;DHT22;6742;48.036;15.780;2022-09-29T16:31:58;13.40;99.90